Map

Track Data

SID SEASON NUMBER BASIN SUBBASIN NAME ISO_TIME NATURE LAT LON WMO_WIND WMO_PRES WMO_AGENCY TRACK_TYPE DIST2LAND LANDFALL IFLAG USA_AGENCY USA_ATCF_ID USA_LAT USA_LON USA_RECORD USA_STATUS USA_WIND USA_PRES USA_SSHS USA_R34_NE USA_R34_SE USA_R34_SW USA_R34_NW USA_R50_NE USA_R50_SE USA_R50_SW USA_R50_NW USA_R64_NE USA_R64_SE USA_R64_SW USA_R64_NW USA_POCI USA_ROCI USA_RMW USA_EYE TOKYO_LAT TOKYO_LON TOKYO_GRADE TOKYO_WIND TOKYO_PRES TOKYO_R50_DIR TOKYO_R50_LONG TOKYO_R50_SHORT TOKYO_R30_DIR TOKYO_R30_LONG TOKYO_R30_SHORT TOKYO_LAND CMA_LAT CMA_LON CMA_CAT CMA_WIND CMA_PRES HKO_LAT HKO_LON HKO_CAT HKO_WIND HKO_PRES NEWDELHI_LAT NEWDELHI_LON NEWDELHI_GRADE NEWDELHI_WIND NEWDELHI_PRES NEWDELHI_CI NEWDELHI_DP NEWDELHI_POCI REUNION_LAT REUNION_LON REUNION_TYPE REUNION_WIND REUNION_PRES REUNION_TNUM REUNION_CI REUNION_RMW REUNION_R34_NE REUNION_R34_SE REUNION_R34_SW REUNION_R34_NW REUNION_R50_NE REUNION_R50_SE REUNION_R50_SW REUNION_R50_NW REUNION_R64_NE REUNION_R64_SE REUNION_R64_SW REUNION_R64_NW BOM_LAT BOM_LON BOM_TYPE BOM_WIND BOM_PRES BOM_TNUM BOM_CI BOM_RMW BOM_R34_NE BOM_R34_SE BOM_R34_SW BOM_R34_NW BOM_R50_NE BOM_R50_SE BOM_R50_SW BOM_R50_NW BOM_R64_NE BOM_R64_SE BOM_R64_SW BOM_R64_NW BOM_ROCI BOM_POCI BOM_EYE BOM_POS_METHOD BOM_PRES_METHOD NADI_LAT NADI_LON NADI_CAT NADI_WIND NADI_PRES WELLINGTON_LAT WELLINGTON_LON WELLINGTON_WIND WELLINGTON_PRES DS824_LAT DS824_LON DS824_STAGE DS824_WIND DS824_PRES TD9636_LAT TD9636_LON TD9636_STAGE TD9636_WIND TD9636_PRES TD9635_LAT TD9635_LON TD9635_WIND TD9635_PRES TD9635_ROCI NEUMANN_LAT NEUMANN_LON NEUMANN_CLASS NEUMANN_WIND NEUMANN_PRES MLC_LAT MLC_LON MLC_CLASS MLC_WIND MLC_PRES USA_GUST BOM_GUST BOM_GUST_PER REUNION_GUST REUNION_GUST_PER USA_SEAHGT USA_SEARAD_NE USA_SEARAD_SE USA_SEARAD_SW USA_SEARAD_NW STORM_SPEED STORM_DIR
2001264N13269 2001 66 EP MM JULIETTE 2001-09-21 06:00:00 TS 12.6000 -91.1000 30 1007 hurdat_epa main 145 134 O_____________ hurdat_epa EP112001 12.6000 -91.1000 TD 30 1007 -1 17 282
2001264N13269 2001 66 EP MM JULIETTE 2001-09-21 09:00:00 TS 12.7807 -91.9700 main 144 144 P_____________ EP112001 12.7807 -91.9700 TD 32 1006 -1 17 284
2001264N13269 2001 66 EP MM JULIETTE 2001-09-21 12:00:00 TS 13.0000 -92.8000 35 1005 hurdat_epa main 172 172 O_____________ hurdat_epa EP112001 13.0000 -92.8000 TS 35 1005 0 16 288
2001264N13269 2001 66 EP MM JULIETTE 2001-09-21 15:00:00 TS 13.2721 -93.5648 main 202 202 P_____________ EP112001 13.2721 -93.5648 TS 35 1001 0 15 289
2001264N13269 2001 66 EP MM JULIETTE 2001-09-21 18:00:00 TS 13.5000 -94.3000 35 997 hurdat_epa main 240 240 O_____________ hurdat_epa EP112001 13.5000 -94.3000 TS 35 997 0 15 282
2001264N13269 2001 66 EP MM JULIETTE 2001-09-21 21:00:00 TS 13.5873 -95.0502 main 263 239 P_____________ EP112001 13.5873 -95.0502 TS 37 996 0 15 274
2001264N13269 2001 66 EP MM JULIETTE 2001-09-22 00:00:00 TS 13.6000 -95.8000 40 996 hurdat_epa main 239 224 O_____________ hurdat_epa EP112001 13.6000 -95.8000 TS 40 996 0 15 271
2001264N13269 2001 66 EP MM JULIETTE 2001-09-22 03:00:00 TS 13.6150 -96.5725 main 223 223 P_____________ EP112001 13.6150 -96.5725 TS 42 996 0 15 270
2001264N13269 2001 66 EP MM JULIETTE 2001-09-22 06:00:00 TS 13.6000 -97.3000 45 996 hurdat_epa main 236 236 O_____________ hurdat_epa EP112001 13.6000 -97.3000 TS 45 996 0 13 267
2001264N13269 2001 66 EP MM JULIETTE 2001-09-22 09:00:00 TS 13.5497 -97.9226 main 273 273 P_____________ EP112001 13.5497 -97.9226 TS 45 995 0 12 265
2001264N13269 2001 66 EP MM JULIETTE 2001-09-22 12:00:00 TS 13.5000 -98.5000 45 995 hurdat_epa main 289 289 O_____________ hurdat_epa EP112001 13.5000 -98.5000 TS 45 995 0 12 265
2001264N13269 2001 66 EP MM JULIETTE 2001-09-22 15:00:00 TS 13.4401 -99.1377 main 322 322 P_____________ EP112001 13.4401 -99.1377 TS 45 994 0 12 270
2001264N13269 2001 66 EP MM JULIETTE 2001-09-22 18:00:00 TS 13.5000 -99.7000 45 994 hurdat_epa main 335 317 O_____________ hurdat_epa EP112001 13.5000 -99.7000 TS 45 994 0 10 293
2001264N13269 2001 66 EP MM JULIETTE 2001-09-22 21:00:00 TS 13.8197 -100.072 main 322 289 P_____________ EP112001 13.8197 -100.072 TS 47 993 0 10 316
2001264N13269 2001 66 EP MM JULIETTE 2001-09-23 00:00:00 TS 14.2000 -100.400 50 992 hurdat_epa main 289 278 O_____________ hurdat_epa EP112001 14.2000 -100.400 TS 50 992 0 10 310
2001264N13269 2001 66 EP MM JULIETTE 2001-09-23 03:00:00 TS 14.4375 -100.835 main 283 277 P_____________ EP112001 14.4375 -100.835 TS 52 989 0 10 295
2001264N13269 2001 66 EP MM JULIETTE 2001-09-23 06:00:00 TS 14.6000 -101.300 55 986 hurdat_epa main 290 289 O_____________ hurdat_epa EP112001 14.6000 -101.300 TS 55 986 0 10 287
2001264N13269 2001 66 EP MM JULIETTE 2001-09-23 09:00:00 TS 14.7225 -101.773 main 299 292 P_____________ EP112001 14.7225 -101.773 TS 60 981 0 9 283
2001264N13269 2001 66 EP MM JULIETTE 2001-09-23 12:00:00 TS 14.8000 -102.200 65 976 hurdat_epa main 303 302 O_____________ hurdat_epa EP112001 14.8000 -102.200 HU 65 976 1 7 282
2001264N13269 2001 66 EP MM JULIETTE 2001-09-23 15:00:00 TS 14.8724 -102.530 main 307 307 P_____________ EP112001 14.8724 -102.530 HU 75 968 1 6 280
2001264N13269 2001 66 EP MM JULIETTE 2001-09-23 18:00:00 TS 14.9000 -102.800 85 960 hurdat_epa main 324 324 O_____________ hurdat_epa EP112001 14.9000 -102.800 HU 85 960 2 5 267
2001264N13269 2001 66 EP MM JULIETTE 2001-09-23 21:00:00 TS 14.8425 -103.080 main 352 352 P_____________ EP112001 14.8425 -103.080 HU 97 950 3 5 258
2001264N13269 2001 66 EP MM JULIETTE 2001-09-24 00:00:00 TS 14.8000 -103.300 110 941 hurdat_epa main 362 355 O_____________ hurdat_epa EP112001 14.8000 -103.300 HU 110 941 3 3 277
2001264N13269 2001 66 EP MM JULIETTE 2001-09-24 03:00:00 TS 14.8849 -103.415 main 355 348 P_____________ EP112001 14.8849 -103.415 HU 112 941 3 3 316
2001264N13269 2001 66 EP MM JULIETTE 2001-09-24 06:00:00 TS 15.0000 -103.500 115 941 hurdat_epa main 348 341 O_____________ hurdat_epa EP112001 15.0000 -103.500 HU 115 941 4 3 308
2001264N13269 2001 66 EP MM JULIETTE 2001-09-24 09:00:00 TS 15.0575 -103.643 main 341 341 P_____________ EP112001 15.0575 -103.643 HU 107 946 3 3 289
2001264N13269 2001 66 EP MM JULIETTE 2001-09-24 12:00:00 TS 15.1000 -103.800 100 952 hurdat_epa main 348 348 O_____________ hurdat_epa EP112001 15.1000 -103.800 HU 100 952 3 3 287
2001264N13269 2001 66 EP MM JULIETTE 2001-09-24 15:00:00 TS 15.1424 -103.928 main 352 345 P_____________ EP112001 15.1424 -103.928 HU 97 954 3 3 289
2001264N13269 2001 66 EP MM JULIETTE 2001-09-24 18:00:00 TS 15.2000 -104.100 95 957 hurdat_epa main 348 345 O_____________ hurdat_epa EP112001 15.2000 -104.100 HU 95 957 2 5 286
2001264N13269 2001 66 EP MM JULIETTE 2001-09-24 21:00:00 TS 15.2700 -104.378 main 348 345 P_____________ EP112001 15.2700 -104.378 HU 105 949 3 6 289
2001264N13269 2001 66 EP MM JULIETTE 2001-09-25 00:00:00 TS 15.4000 -104.700 115 941 hurdat_epa main 348 336 O_____________ hurdat_epa EP112001 15.4000 -104.700 HU 115 941 4 7 303
2001264N13269 2001 66 EP MM JULIETTE 2001-09-25 03:00:00 TS 15.6424 -104.977 main 341 323 P_____________ EP112001 15.6424 -104.977 HU 120 938 4 8 311
2001264N13269 2001 66 EP MM JULIETTE 2001-09-25 06:00:00 TS 15.9000 -105.300 125 935 hurdat_epa main 329 327 O_____________ hurdat_epa EP112001 15.9000 -105.300 HU 125 935 4 8 301
2001264N13269 2001 66 EP MM JULIETTE 2001-09-25 09:00:00 TS 16.0725 -105.720 main 339 339 P_____________ EP112001 16.0725 -105.720 HU 125 931 4 9 289
2001264N13269 2001 66 EP MM JULIETTE 2001-09-25 12:00:00 TS 16.2000 -106.200 125 928 hurdat_epa main 366 366 O_____________ hurdat_epa EP112001 16.2000 -106.200 HU 125 928 4 10 283
2001264N13269 2001 66 EP MM JULIETTE 2001-09-25 15:00:00 TS 16.2926 -106.715 main 381 381 P_____________ EP112001 16.2926 -106.715 HU 125 925 4 10 282
2001264N13269 2001 66 EP MM JULIETTE 2001-09-25 18:00:00 TS 16.4000 -107.200 125 923 hurdat_epa main 403 403 O_____________ hurdat_epa EP112001 16.4000 -107.200 HU 125 923 4 9 288
2001264N13269 2001 66 EP MM JULIETTE 2001-09-25 21:00:00 TS 16.5623 -107.573 main 415 414 P_____________ EP112001 16.5623 -107.573 HU 125 924 4 8 301
2001264N13269 2001 66 EP MM JULIETTE 2001-09-26 00:00:00 TS 16.8000 -107.900 125 925 hurdat_epa main 422 422 O_____________ hurdat_epa EP112001 16.8000 -107.900 HU 125 925 4 9 310
2001264N13269 2001 66 EP MM JULIETTE 2001-09-26 03:00:00 TS 17.1275 -108.265 main 429 422 P_____________ EP112001 17.1275 -108.265 HU 120 927 4 10 316
2001264N13269 2001 66 EP MM JULIETTE 2001-09-26 06:00:00 TS 17.5000 -108.600 115 930 hurdat_epa main 426 419 O_____________ hurdat_epa EP112001 17.5000 -108.600 HU 115 930 4 9 323
2001264N13269 2001 66 EP MM JULIETTE 2001-09-26 09:00:00 TS 17.8573 -108.850 main 427 421 P_____________ EP112001 17.8573 -108.850 HU 110 932 3 9 326
2001264N13269 2001 66 EP MM JULIETTE 2001-09-26 12:00:00 TS 18.2000 -109.100 105 935 hurdat_epa main 428 428 O_____________ hurdat_epa EP112001 18.2000 -109.100 HU 105 935 3 9 319
2001264N13269 2001 66 EP MM JULIETTE 2001-09-26 15:00:00 TS 18.5076 -109.450 main 451 446 P_____________ EP112001 18.5076 -109.450 HU 102 937 3 9 312
2001264N13269 2001 66 EP MM JULIETTE 2001-09-26 18:00:00 TS 18.8000 -109.800 100 940 hurdat_epa main 458 425 O_____________ hurdat_epa EP112001 18.8000 -109.800 HU 100 940 3 200 225 225 180 1007 200 10 8 314
2001264N13269 2001 66 EP MM JULIETTE 2001-09-26 21:00:00 TS 19.0925 -110.088 main 425 392 P_____________ EP112001 19.0925 -110.088 HU 97 941 3 8 322
2001264N13269 2001 66 EP MM JULIETTE 2001-09-27 00:00:00 TS 19.4000 -110.300 95 942 hurdat_epa main 392 360 O_____________ hurdat_epa EP112001 19.4000 -110.300 HU 95 942 2 7 335
2001264N13269 2001 66 EP MM JULIETTE 2001-09-27 03:00:00 TS 19.7499 -110.415 main 360 317 P_____________ EP112001 19.7499 -110.415 HU 92 945 2 7 345
2001264N13269 2001 66 EP MM JULIETTE 2001-09-27 06:00:00 TS 20.1000 -110.500 90 949 hurdat_epa main 317 286 O_____________ hurdat_epa EP112001 20.1000 -110.500 HU 90 949 2 7 340
2001264N13269 2001 66 EP MM JULIETTE 2001-09-27 09:00:00 TS 20.4000 -110.672 main 288 259 P_____________ EP112001 20.4000 -110.672 HU 87 952 2 7 335
2001264N13269 2001 66 EP MM JULIETTE 2001-09-27 12:00:00 TS 20.7000 -110.800 85 955 hurdat_epa main 259 227 O_____________ hurdat_epa EP112001 20.7000 -110.800 HU 85 955 2 6 351
2001264N13269 2001 66 EP MM JULIETTE 2001-09-27 15:00:00 TS 21.0275 -110.773 main 227 182 P_____________ EP112001 21.0275 -110.773 HU 82 958 1 7 8
2001264N13269 2001 66 EP MM JULIETTE 2001-09-27 18:00:00 TS 21.4000 -110.700 80 961 hurdat_epa main 182 142 O_____________ hurdat_epa EP112001 21.4000 -110.700 HU 80 961 1 8 7
2001264N13269 2001 66 EP MM JULIETTE 2001-09-27 21:00:00 TS 21.8650 -110.670 main 132 98 P_____________ EP112001 21.8650 -110.670 HU 80 964 1 9 0
2001264N13269 2001 66 EP MM JULIETTE 2001-09-28 00:00:00 TS 22.3000 -110.700 80 968 hurdat_epa main 98 88 O_____________ hurdat_epa EP112001 22.3000 -110.700 HU 80 968 1 8 348
2001264N13269 2001 66 EP MM JULIETTE 2001-09-28 03:00:00 TS 22.6026 -110.842 main 88 88 P_____________ EP112001 22.6026 -110.842 HU 77 969 1 6 331
2001264N13269 2001 66 EP MM JULIETTE 2001-09-28 06:00:00 TS 22.8000 -111.000 75 971 hurdat_epa main 102 97 O_____________ hurdat_epa EP112001 22.8000 -111.000 HU 75 971 1 175 200 175 175 1009 300 75 4 327
2001264N13269 2001 66 EP MM JULIETTE 2001-09-28 09:00:00 TS 22.9225 -111.073 main 102 93 P_____________ EP112001 22.9225 -111.073 HU 72 976 1 2 335
2001264N13269 2001 66 EP MM JULIETTE 2001-09-28 12:00:00 TS 23.0000 -111.100 70 981 hurdat_epa main 93 84 O_____________ hurdat_epa EP112001 23.0000 -111.100 HU 70 981 1 2 0
2001264N13269 2001 66 EP MM JULIETTE 2001-09-28 15:00:00 TS 23.1000 -111.100 main 84 75 P_____________ EP112001 23.1000 -111.100 HU 65 984 1 2 8
2001264N13269 2001 66 EP MM JULIETTE 2001-09-28 18:00:00 TS 23.2000 -111.100 60 987 hurdat_epa main 75 67 O_____________ hurdat_epa EP112001 23.2000 -111.100 TS 60 987 0 2 347
2001264N13269 2001 66 EP MM JULIETTE 2001-09-28 21:00:00 TS 23.3000 -111.142 main 67 67 P_____________ EP112001 23.3000 -111.142 TS 60 987 0 2 335
2001264N13269 2001 66 EP MM JULIETTE 2001-09-29 00:00:00 TS 23.4000 -111.200 60 987 hurdat_epa main 67 60 O_____________ hurdat_epa EP112001 23.4000 -111.200 TS 60 987 0 2 335
2001264N13269 2001 66 EP MM JULIETTE 2001-09-29 03:00:00 TS 23.5000 -111.243 main 60 59 P_____________ EP112001 23.5000 -111.243 TS 62 985 0 2 335
2001264N13269 2001 66 EP MM JULIETTE 2001-09-29 06:00:00 TS 23.6000 -111.300 65 983 hurdat_epa main 59 49 O_____________ hurdat_epa EP112001 23.6000 -111.300 HU 65 983 1 2 325
2001264N13269 2001 66 EP MM JULIETTE 2001-09-29 09:00:00 TS 23.7000 -111.393 main 54 45 P_____________ EP112001 23.7000 -111.393 HU 65 984 1 3 318
2001264N13269 2001 66 EP MM JULIETTE 2001-09-29 12:00:00 TS 23.8000 -111.500 65 985 hurdat_epa main 52 52 O_____________ hurdat_epa EP112001 23.8000 -111.500 HU 65 985 1 2 307
2001264N13269 2001 66 EP MM JULIETTE 2001-09-29 15:00:00 TS 23.8400 -111.593 main 60 45 P_____________ EP112001 23.8400 -111.593 HU 55 987 0 3 318
2001264N13269 2001 66 EP MM JULIETTE 2001-09-29 18:00:00 TS 24.0000 -111.700 45 990 hurdat_epa main 45 15 O_____________ hurdat_epa EP112001 24.0000 -111.700 TS 45 990 0 7 336
2001264N13269 2001 66 EP MM JULIETTE 2001-09-29 21:00:00 TS 24.4326 -111.879 main 15 0 P_____________ EP112001 24.4326 -111.879 TS 40 995 0 10 345
2001264N13269 2001 66 EP MM JULIETTE 2001-09-30 00:00:00 TS 25.0000 -112.000 35 1000 hurdat_epa main 0 0 O_____________ hurdat_epa EP112001 25.0000 -112.000 L TS 35 1000 0 11 358
2001264N13269 2001 66 EP MM JULIETTE 2001-09-30 03:00:00 TS 25.5500 -111.923 main 0 0 P_____________ EP112001 25.5500 -111.923 TS 32 1001 -1 11 9
2001264N13269 2001 66 EP MM JULIETTE 2001-09-30 06:00:00 TS 26.1000 -111.800 30 1003 hurdat_epa main 0 0 O_____________ hurdat_epa EP112001 26.1000 -111.800 TD 30 1003 -1 11 7
2001264N13269 2001 66 EP MM JULIETTE 2001-09-30 09:00:00 TS 26.6000 -111.770 main 0 0 P_____________ EP112001 26.6000 -111.770 TD 30 1004 -1 10 1
2001264N13269 2001 66 EP MM JULIETTE 2001-09-30 12:00:00 TS 27.1000 -111.800 30 1005 hurdat_epa main 19 19 O_____________ hurdat_epa EP112001 27.1000 -111.800 TD 30 1005 -1 11 354
2001264N13269 2001 66 EP MM JULIETTE 2001-09-30 15:00:00 TS 27.6875 -111.885 main 50 44 P_____________ EP112001 27.6875 -111.885 TD 30 1005 -1 11 351
2001264N13269 2001 66 EP MM JULIETTE 2001-09-30 18:00:00 TS 28.2000 -112.000 30 1005 hurdat_epa main 44 31 O_____________ hurdat_epa EP112001 28.2000 -112.000 TD 30 1005 -1 8 347
2001264N13269 2001 66 EP MM JULIETTE 2001-09-30 21:00:00 TS 28.4950 -112.093 main 36 29 P_____________ EP112001 28.4950 -112.093 TD 27 1005 -1 5 340
2001264N13269 2001 66 EP MM JULIETTE 2001-10-01 00:00:00 TS 28.7000 -112.200 25 1005 hurdat_epa main 29 14 O_____________ hurdat_epa EP112001 28.7000 -112.200 TD 25 1005 -1 5 334
2001264N13269 2001 66 EP MM JULIETTE 2001-10-01 03:00:00 TS 28.9500 -112.350 main 9 9 P_____________ EP112001 28.9500 -112.350 TD 25 1005 -1 6 332
2001264N13269 2001 66 EP MM JULIETTE 2001-10-01 06:00:00 TS 29.2000 -112.500 25 1006 hurdat_epa main 14 9 O_____________ hurdat_epa EP112001 29.2000 -112.500 TD 25 1006 -1 5 337
2001264N13269 2001 66 EP MM JULIETTE 2001-10-01 09:00:00 TS 29.4499 -112.593 main 19 14 P_____________ EP112001 29.4499 -112.593 TD 25 1006 -1 5 341
2001264N13269 2001 66 EP MM JULIETTE 2001-10-01 12:00:00 TS 29.7000 -112.700 25 1006 hurdat_epa main 14 9 O_____________ hurdat_epa EP112001 29.7000 -112.700 TD 25 1006 -1 6 333
2001264N13269 2001 66 EP MM JULIETTE 2001-10-01 15:00:00 TS 29.9726 -112.900 main 19 19 P_____________ EP112001 29.9726 -112.900 TD 27 1006 -1 6 325
2001264N13269 2001 66 EP MM JULIETTE 2001-10-01 18:00:00 TS 30.2000 -113.100 30 1006 hurdat_epa main 28 22 O_____________ hurdat_epa EP112001 30.2000 -113.100 TD 30 1006 -1 4 323
2001264N13269 2001 66 EP MM JULIETTE 2001-10-01 21:00:00 TS 30.3224 -113.208 main 30 28 P_____________ EP112001 30.3224 -113.208 TD 30 1006 -1 3 319
2001264N13269 2001 66 EP MM JULIETTE 2001-10-02 00:00:00 TS 30.4000 -113.300 30 1006 hurdat_epa main 36 36 O_____________ hurdat_epa EP112001 30.4000 -113.300 TD 30 1006 -1 3 313
2001264N13269 2001 66 EP MM JULIETTE 2001-10-02 03:00:00 TS 30.5225 -113.450 main 36 36 P_____________ EP112001 30.5225 -113.450 TD 30 1006 -1 3 307
2001264N13269 2001 66 EP MM JULIETTE 2001-10-02 06:00:00 TS 30.6000 -113.600 30 1006 hurdat_epa main 49 49 O_____________ hurdat_epa EP112001 30.6000 -113.600 TD 30 1006 -1 2 284
2001264N13269 2001 66 EP MM JULIETTE 2001-10-02 09:00:00 TS 30.5724 -113.678 main 58 58 P_____________ EP112001 30.5724 -113.678 TD 30 1006 -1 2 240
2001264N13269 2001 66 EP MM JULIETTE 2001-10-02 12:00:00 TS 30.5000 -113.800 30 1006 hurdat_epa main 70 47 O_____________ hurdat_epa EP112001 30.5000 -113.800 TD 30 1006 -1 4 253
2001264N13269 2001 66 EP MM JULIETTE 2001-10-02 15:00:00 TS 30.4578 -114.100 main 47 22 P_____________ EP112001 30.4578 -114.100 TD 30 1006 -1 5 259
2001264N13269 2001 66 EP MM JULIETTE 2001-10-02 18:00:00 TS 30.4000 -114.400 30 1007 hurdat_epa main 22 14 O_____________ hurdat_epa EP112001 30.4000 -114.400 TD 30 1007 -1 4 249
2001264N13269 2001 66 EP MM JULIETTE 2001-10-02 21:00:00 TS 30.3098 -114.550 main 19 9 P_____________ EP112001 30.3098 -114.550 TD 27 1007 -1 3 221
2001264N13269 2001 66 EP MM JULIETTE 2001-10-03 00:00:00 TS 30.2000 -114.600 25 1008 hurdat_epa main 9 O_____________ hurdat_epa EP112001 30.2000 -114.600 TD 25 1008 -1 2 202

About IBTrACS Database

This database is a web-friendly format of International Best Track Archive for Climate Stewardship (IBTrACS), a global best track data archive curated by NOAA dating back to 1842.

Updated: 2021-10-19